Time;durP1;ratioP1;P1;durP2;ratioP2;P2;SDS_P1;SDS_P2;PMS_P1;PMS_P2;Temp;Humidity;BMP_temperature;BMP_pressure;BME280_temperature;BME280_humidity;BME280_pressure;Samples;Min_cycle;Max_cycle;Signal;HPM_P1;HPM_P2
2021/09/26 00:02:16;;;;;;;5.22;3.30;;;;;;;28.01;37.48;96697.66;5004291;28;20576;-30
2021/09/26 00:04:41;;;;;;;3.70;3.40;;;;;;;28.01;37.41;96700.28;5005193;28;20040;-30
2021/09/26 00:07:07;;;;;;;4.78;3.60;;;;;;;28.01;37.34;96706.41;5005269;28;20095;-28
2021/09/26 00:09:32;;;;;;;6.78;3.30;;;;;;;28.01;37.43;96708.19;4991259;28;20037;-28
2021/09/26 00:11:58;;;;;;;4.05;3.17;;;;;;;28.01;37.31;96703.78;5003997;28;20068;-30
2021/09/26 00:14:23;;;;;;;5.03;3.28;;;;;;;28.01;37.36;96700.28;5005474;28;20109;-28
2021/09/26 00:16:49;;;;;;;5.18;3.38;;;;;;;28.01;37.51;96695.03;5005345;28;20025;-31
2021/09/26 00:19:14;;;;;;;4.13;3.38;;;;;;;28.00;37.41;96693.34;5006731;28;20026;-29
2021/09/26 00:21:39;;;;;;;8.18;3.20;;;;;;;28.00;37.31;96688.91;4989086;28;20033;-29
2021/09/26 00:24:05;;;;;;;9.05;3.10;;;;;;;27.99;37.49;96681.94;5005727;28;20034;-28
2021/09/26 00:26:30;;;;;;;5.13;3.30;;;;;;;28.01;37.29;96684.50;5005872;28;20029;-27
2021/09/26 00:28:56;;;;;;;4.28;3.35;;;;;;;28.01;37.49;96681.84;5006117;28;20615;-28
2021/09/26 00:31:21;;;;;;;3.55;3.13;;;;;;;28.01;37.48;96680.09;5000266;28;20041;-30
2021/09/26 00:33:46;;;;;;;3.35;2.83;;;;;;;28.01;37.46;96679.22;5005912;28;20486;-27
2021/09/26 00:36:12;;;;;;;4.85;3.20;;;;;;;28.01;37.40;96679.22;4999608;28;20700;-33
2021/09/26 00:38:37;;;;;;;5.25;3.35;;;;;;;28.02;37.49;96675.63;4999646;28;20025;-28
2021/09/26 00:41:03;;;;;;;3.72;3.28;;;;;;;28.01;37.44;96671.31;5004278;28;20022;-27
2021/09/26 00:43:28;;;;;;;3.90;3.10;;;;;;;28.02;37.43;96675.63;5004166;28;20025;-29
2021/09/26 00:45:54;;;;;;;8.00;3.03;;;;;;;28.02;37.29;96676.50;5005274;28;20033;-29
2021/09/26 00:48:19;;;;;;;4.63;3.50;;;;;;;28.01;37.27;96674.81;5004508;28;20112;-30
2021/09/26 00:50:45;;;;;;;5.00;3.38;;;;;;;28.00;37.42;96667.81;5003988;28;20087;-26
2021/09/26 00:53:10;;;;;;;3.53;3.05;;;;;;;28.01;37.27;96671.31;5004464;28;20022;-28
2021/09/26 00:55:36;;;;;;;4.65;3.10;;;;;;;28.01;37.51;96668.69;5002761;28;20025;-28
2021/09/26 00:58:01;;;;;;;4.70;3.05;;;;;;;28.01;37.45;96671.31;5003742;28;20018;-30
2021/09/26 01:00:27;;;;;;;6.72;3.10;;;;;;;28.01;37.38;96679.22;4999002;28;20045;-26
2021/09/26 01:02:52;;;;;;;4.85;3.40;;;;;;;28.01;37.22;96679.22;5002477;28;20025;-28
2021/09/26 01:05:18;;;;;;;5.40;3.22;;;;;;;28.00;37.50;96675.72;5007639;28;20033;-29
2021/09/26 01:07:51;;;;;;;5.28;2.75;;;;;;;28.00;37.34;96667.81;5003585;28;20079;-30
2021/09/26 01:10:35;;;;;;;4.00;3.22;;;;;;;28.00;37.29;96672.28;5010411;28;20063;-32
2021/09/26 01:13:14;;;;;;;5.18;3.20;;;;;;;28.00;37.29;96678.38;4996765;28;20033;-28
2021/09/26 01:15:42;;;;;;;3.45;2.60;;;;;;;28.01;37.38;96676.59;5003918;28;20022;-29
2021/09/26 01:18:22;;;;;;;3.67;3.13;;;;;;;28.00;37.41;96683.63;5006361;28;20031;-29
2021/09/26 01:21:25;;;;;;;4.03;3.00;;;;;;;28.00;37.54;96682.81;5004894;28;20040;-30
2021/09/26 01:24:28;;;;;;;3.92;3.10;;;;;;;28.00;37.32;96682.81;5003719;28;20555;-40
2021/09/26 01:27:16;;;;;;;3.83;3.17;;;;;;;28.00;37.33;96682.81;4996580;28;20025;-30
2021/09/26 01:29:47;;;;;;;4.10;3.00;;;;;;;27.99;37.28;96686.41;4984752;28;20549;-30
2021/09/26 01:32:13;;;;;;;4.60;3.00;;;;;;;28.00;37.45;96680.16;4995238;28;20239;-30
2021/09/26 01:34:43;;;;;;;5.13;3.00;;;;;;;27.98;37.42;96679.41;4979602;28;20602;-29
2021/09/26 01:37:14;;;;;;;4.15;3.10;;;;;;;27.97;37.32;96691.75;4997618;28;20060;-29
2021/09/26 01:39:47;;;;;;;4.93;3.05;;;;;;;27.98;37.44;96682.03;5002350;28;20068;-30
2021/09/26 01:42:21;;;;;;;4.30;3.05;;;;;;;27.98;37.24;96684.69;4994445;28;20029;-28
2021/09/26 01:44:55;;;;;;;4.25;2.80;;;;;;;27.93;37.42;96677.09;5003647;28;20118;-29
2021/09/26 01:47:26;;;;;;;5.65;2.90;;;;;;;27.98;37.35;96689.94;5004397;28;20035;-29
2021/09/26 01:49:53;;;;;;;3.05;2.58;;;;;;;27.98;37.35;96689.94;5002454;28;20113;-28
2021/09/26 01:52:24;;;;;;;3.47;2.70;;;;;;;27.99;37.33;96694.28;5009995;28;20092;-28
2021/09/26 01:54:49;;;;;;;5.32;3.25;;;;;;;27.99;37.32;96696.94;5006914;28;20026;-29
2021/09/26 01:57:21;;;;;;;3.47;2.85;;;;;;;27.98;37.22;96692.56;5002595;28;20025;-25
2021/09/26 01:59:52;;;;;;;4.13;2.80;;;;;;;27.97;37.29;96699.66;5009560;28;20034;-28
2021/09/26 02:02:17;;;;;;;4.80;2.78;;;;;;;27.99;37.20;96696.94;5002260;28;20057;-28
2021/09/26 02:04:44;;;;;;;6.40;2.80;;;;;;;27.98;37.36;96684.69;4993249;28;20044;-31
2021/09/26 02:07:10;;;;;;;3.65;2.90;;;;;;;27.97;37.28;96683.84;4977405;28;21937;-30
2021/09/26 02:09:36;;;;;;;4.40;3.28;;;;;;;27.98;37.08;96676.78;4981307;28;20057;-30
2021/09/26 02:12:01;;;;;;;3.30;3.00;;;;;;;27.97;37.20;96673.31;4978234;28;20676;-30
2021/09/26 02:14:26;;;;;;;4.20;2.95;;;;;;;27.97;37.26;96678.59;4983666;28;20784;-30
2021/09/26 02:16:52;;;;;;;3.67;2.90;;;;;;;27.95;37.35;96674.34;4975562;28;20017;-30
2021/09/26 02:19:17;;;;;;;9.15;3.03;;;;;;;27.98;37.36;96679.41;4994045;28;20034;-32
2021/09/26 02:21:43;;;;;;;6.07;2.90;;;;;;;27.98;37.47;96674.13;4998343;28;20068;-28
2021/09/26 02:24:08;;;;;;;3.20;2.80;;;;;;;27.96;37.17;96674.22;4986208;28;20188;-31
2021/09/26 02:26:36;;;;;;;5.25;3.10;;;;;;;27.97;37.40;96673.31;4995933;28;20029;-30
2021/09/26 02:29:03;;;;;;;4.05;2.80;;;;;;;27.97;37.35;96677.72;4982907;28;20095;-30
2021/09/26 02:31:28;;;;;;;10.38;2.90;;;;;;;27.96;37.33;96682.13;4993570;28;21862;-29
2021/09/26 02:33:53;;;;;;;4.00;2.67;;;;;;;27.98;37.37;96684.69;4996687;28;20040;-30
2021/09/26 02:36:21;;;;;;;4.55;3.13;;;;;;;27.96;37.41;96682.13;4996261;28;20033;-29
2021/09/26 02:38:46;;;;;;;4.30;3.00;;;;;;;27.97;37.38;96683.00;4996472;28;20724;-29
2021/09/26 02:41:19;;;;;;;4.78;2.70;;;;;;;27.97;37.27;96677.72;5003538;28;20047;-30
2021/09/26 02:43:51;;;;;;;4.63;2.88;;;;;;;27.96;37.24;96673.41;5000280;28;20080;-31
2021/09/26 02:46:17;;;;;;;;;;;;;;;27.95;37.47;96680.47;5005473;28;20037;-29
2021/09/26 02:48:43;;;;;;;6.30;3.17;;;;;;;27.96;37.32;96683.94;5002774;28;20894;-30
2021/09/26 02:51:08;;;;;;;3.30;2.80;;;;;;;27.95;37.26;96671.72;4986804;28;20037;-31
2021/09/26 02:53:34;;;;;;;3.20;2.80;;;;;;;27.95;37.37;96679.63;5002259;28;20052;-30
2021/09/26 02:55:59;;;;;;;5.15;2.90;;;;;;;27.95;37.35;96679.63;4982804;28;20037;-29
2021/09/26 02:58:25;;;;;;;4.45;2.50;;;;;;;27.92;37.19;96673.59;4988826;28;21183;-30
2021/09/26 03:00:50;;;;;;;3.47;2.90;;;;;;;27.93;37.40;96671.81;4986607;28;20026;-30
2021/09/26 03:03:17;;;;;;;5.45;2.85;;;;;;;27.92;37.39;96657.78;5003934;28;20777;-33
2021/09/26 03:05:43;;;;;;;4.50;2.75;;;;;;;27.92;37.44;96657.78;5008658;28;20018;-31
2021/09/26 03:08:08;;;;;;;4.75;2.80;;;;;;;27.94;37.16;96662.13;5007199;28;20066;-28
2021/09/26 03:10:34;;;;;;;6.65;3.30;;;;;;;27.92;37.31;96659.59;5012433;28;20053;-29
2021/09/26 03:13:00;;;;;;;4.03;2.97;;;;;;;27.92;37.21;96651.69;5003353;28;20032;-31
2021/09/26 03:15:25;;;;;;;4.13;2.63;;;;;;;27.92;37.32;96649.91;5006313;28;20033;-30
2021/09/26 03:17:50;;;;;;;10.65;3.00;;;;;;;27.92;37.59;96649.91;5007002;28;20029;-30
2021/09/26 03:20:16;;;;;;;2.95;2.50;;;;;;;27.92;37.62;96644.63;5009118;28;20571;-29
2021/09/26 03:22:41;;;;;;;4.20;2.90;;;;;;;27.92;37.50;96643.81;5019135;28;20155;-29
2021/09/26 03:25:07;;;;;;;4.22;2.70;;;;;;;27.95;37.47;96650.66;4994455;28;20022;-28
2021/09/26 03:27:32;;;;;;;4.25;3.30;;;;;;;27.94;37.58;96641.03;5003135;28;20649;-29
2021/09/26 03:29:58;;;;;;;3.80;2.90;;;;;;;27.95;37.38;96642.75;5005245;28;20583;-29
2021/09/26 03:32:23;;;;;;;6.40;2.72;;;;;;;27.94;37.33;96641.03;5004367;28;20044;-29
2021/09/26 03:34:49;;;;;;;4.95;2.85;;;;;;;27.93;37.44;96632.31;4997301;28;20022;-29
2021/09/26 03:37:14;;;;;;;5.97;2.53;;;;;;;27.95;37.23;96642.75;4998183;28;20025;-30
2021/09/26 03:39:39;;;;;;;3.72;2.97;;;;;;;27.94;37.37;96641.91;5001066;28;20674;-30
2021/09/26 03:42:05;;;;;;;3.08;2.47;;;;;;;27.92;37.30;96644.63;5002597;28;22032;-30
2021/09/26 03:44:30;;;;;;;3.33;2.58;;;;;;;27.94;37.36;96636.63;5007287;28;20044;-33
2021/09/26 03:46:56;;;;;;;5.05;2.97;;;;;;;27.95;37.45;96637.50;5005225;28;20113;-30
2021/09/26 03:49:22;;;;;;;4.75;2.70;;;;;;;27.94;37.30;96641.03;5021180;28;20028;-29
2021/09/26 03:51:48;;;;;;;3.33;2.60;;;;;;;27.94;37.40;96639.28;5010680;28;20168;-29
2021/09/26 03:54:15;;;;;;;4.95;2.92;;;;;;;27.94;37.44;96638.41;5013472;28;20040;-29
2021/09/26 03:56:40;;;;;;;3.72;2.80;;;;;;;27.94;37.45;96635.78;5012462;28;20032;-30
2021/09/26 03:59:05;;;;;;;4.22;2.90;;;;;;;27.95;37.46;96626.97;5004758;28;20033;-28
2021/09/26 04:01:31;;;;;;;6.05;3.00;;;;;;;27.96;37.35;96633.91;4999136;28;20036;-33
2021/09/26 04:03:56;;;;;;;4.80;2.72;;;;;;;27.95;37.29;96626.97;4999786;28;20695;-31
2021/09/26 04:06:22;;;;;;;4.90;2.58;;;;;;;27.96;37.48;96631.28;5003962;28;20030;-27
2021/09/26 04:08:47;;;;;;;5.55;2.60;;;;;;;27.94;37.30;96625.25;5010443;28;20029;-29
2021/09/26 04:11:12;;;;;;;3.53;2.67;;;;;;;27.94;37.35;96633.16;5008996;28;20033;-29
2021/09/26 04:13:38;;;;;;;4.60;2.78;;;;;;;27.95;37.40;96632.22;5010597;28;20076;-30
2021/09/26 04:16:03;;;;;;;3.75;2.67;;;;;;;27.93;37.16;96629.69;5006354;28;20036;-32
2021/09/26 04:18:29;;;;;;;4.18;3.00;;;;;;;27.94;37.20;96635.78;5009160;28;20064;-28
2021/09/26 04:20:54;;;;;;;7.78;3.10;;;;;;;27.94;37.18;96635.78;5009963;28;20029;-30
2021/09/26 04:23:20;;;;;;;6.20;3.00;;;;;;;27.94;37.07;96625.25;5006186;28;20163;-31
2021/09/26 04:25:45;;;;;;;3.45;2.47;;;;;;;27.92;37.12;96634.09;5008626;28;20508;-34
2021/09/26 04:28:11;;;;;;;4.47;2.70;;;;;;;27.92;37.27;96639.34;5006755;28;20030;-30
2021/09/26 04:30:36;;;;;;;4.75;2.70;;;;;;;27.94;37.24;96641.03;5010923;28;20056;-30
2021/09/26 04:33:02;;;;;;;3.40;2.70;;;;;;;27.92;37.11;96639.34;5007763;28;20037;-30
2021/09/26 04:35:28;;;;;;;3.75;2.50;;;;;;;27.92;37.23;96631.47;5012505;28;20512;-35
2021/09/26 04:37:53;;;;;;;3.22;2.60;;;;;;;27.92;37.13;96622.72;5009945;28;20076;-29
2021/09/26 04:40:19;;;;;;;5.35;2.80;;;;;;;27.91;37.20;96627.16;5011578;28;20022;-30
2021/09/26 04:42:45;;;;;;;3.60;2.70;;;;;;;27.92;37.27;96622.72;4986051;28;20444;-30
2021/09/26 04:45:11;;;;;;;3.78;2.60;;;;;;;27.91;37.36;96632.41;5007835;28;20029;-30
2021/09/26 04:47:37;;;;;;;4.15;2.60;;;;;;;27.91;37.18;96621.88;5000467;28;20025;-29
2021/09/26 04:50:03;;;;;;;4.70;2.72;;;;;;;27.91;37.39;96637.69;5010859;28;20033;-31
2021/09/26 04:52:29;;;;;;;3.38;2.75;;;;;;;27.91;37.24;96621.88;5005054;28;20803;-30
2021/09/26 04:54:54;;;;;;;3.03;2.58;;;;;;;27.91;37.23;96632.41;5005072;28;20026;-29
2021/09/26 04:57:20;;;;;;;3.63;2.65;;;;;;;27.91;37.35;96628.91;5007027;28;20025;-29
2021/09/26 04:59:45;;;;;;;2.78;2.45;;;;;;;27.91;37.30;96631.56;5010436;28;20396;-31
2021/09/26 05:02:11;;;;;;;3.38;2.60;;;;;;;27.91;37.42;96629.78;5006308;28;20025;-30
2021/09/26 05:04:36;;;;;;;4.47;2.90;;;;;;;27.90;37.27;96625.47;5008964;28;20021;-31
2021/09/26 05:07:02;;;;;;;4.60;2.90;;;;;;;27.90;37.40;96628.09;5011405;28;20049;-28
2021/09/26 05:09:27;;;;;;;4.13;2.80;;;;;;;27.90;37.41;96635.13;5012378;28;20065;-30
2021/09/26 05:11:53;;;;;;;4.05;2.40;;;;;;;27.90;37.14;96629.88;5008584;28;20504;-31
2021/09/26 05:14:18;;;;;;;5.90;2.85;;;;;;;27.89;37.26;96629.00;5008532;28;20026;-29
2021/09/26 05:16:44;;;;;;;3.05;2.35;;;;;;;27.90;37.28;96625.47;5009695;28;20037;-28
2021/09/26 05:19:09;;;;;;;3.53;2.60;;;;;;;27.91;37.24;96629.78;5010962;28;20044;-30
2021/09/26 05:21:36;;;;;;;4.43;2.53;;;;;;;27.89;37.30;96626.38;5010766;28;20036;-31
2021/09/26 05:24:01;;;;;;;3.67;2.70;;;;;;;27.90;37.26;96625.47;5010557;28;20593;-28
2021/09/26 05:26:27;;;;;;;4.80;2.90;;;;;;;27.90;37.47;96629.88;5009470;28;20021;-30
2021/09/26 05:28:52;;;;;;;4.03;2.90;;;;;;;27.90;37.48;96636.00;5006907;28;20040;-28
2021/09/26 05:31:18;;;;;;;4.78;2.35;;;;;;;27.90;37.25;96636.00;5006086;28;20732;-28
2021/09/26 05:33:43;;;;;;;5.43;2.92;;;;;;;27.91;37.41;96628.91;5003426;28;20038;-28
2021/09/26 05:36:08;;;;;;;3.05;2.42;;;;;;;27.90;37.34;96636.00;5008025;28;20080;-30
2021/09/26 05:38:34;;;;;;;3.70;2.70;;;;;;;27.90;37.23;96630.72;5009654;28;20022;-29
2021/09/26 05:41:00;;;;;;;4.55;2.80;;;;;;;27.89;37.20;96639.56;5008560;28;20388;-30
2021/09/26 05:43:25;;;;;;;3.40;2.67;;;;;;;27.90;37.39;96651.78;5007578;28;20132;-28
2021/09/26 05:45:50;;;;;;;4.90;2.58;;;;;;;27.90;37.21;96646.53;5006729;28;20037;-30
2021/09/26 05:48:16;;;;;;;4.93;2.97;;;;;;;27.90;37.38;96641.25;4996007;28;20037;-29
2021/09/26 05:50:42;;;;;;;4.13;2.63;;;;;;;27.89;37.29;96629.00;4999700;28;20030;-30
2021/09/26 05:53:07;;;;;;;4.82;2.70;;;;;;;27.89;37.22;96634.28;5004730;28;20021;-30
2021/09/26 05:55:33;;;;;;;3.33;2.53;;;;;;;27.91;37.34;96642.94;4997913;28;20552;-29
2021/09/26 05:57:58;;;;;;;3.15;2.35;;;;;;;27.90;37.22;96650.94;4994766;28;20026;-28
2021/09/26 06:00:24;;;;;;;8.15;2.70;;;;;;;27.90;37.18;96646.53;5002066;28;20523;-30
2021/09/26 06:02:50;;;;;;;2.85;2.47;;;;;;;27.89;37.22;96655.34;5004630;28;20024;-28
2021/09/26 06:05:15;;;;;;;8.55;2.83;;;;;;;27.91;37.33;96658.75;5004749;28;20033;-27
2021/09/26 06:07:41;;;;;;;3.42;2.50;;;;;;;27.90;37.18;96646.53;5007932;28;20056;-29
2021/09/26 06:10:07;;;;;;;5.97;2.80;;;;;;;27.90;37.25;96641.25;4997835;28;20486;-28
2021/09/26 06:12:32;;;;;;;5.72;2.67;;;;;;;27.90;37.23;96646.53;4997544;28;20026;-29
2021/09/26 06:14:57;;;;;;;2.83;2.40;;;;;;;27.91;37.35;96647.34;4998027;28;20026;-28
2021/09/26 06:17:23;;;;;;;3.53;2.63;;;;;;;27.91;37.19;96648.22;5005737;28;20495;-29
2021/09/26 06:19:50;;;;;;;4.50;2.47;;;;;;;27.91;37.25;96642.94;5006865;28;20034;-30
2021/09/26 06:22:16;;;;;;;7.63;2.53;;;;;;;27.91;37.30;96648.22;4998262;28;20017;-30
2021/09/26 06:24:41;;;;;;;3.42;2.58;;;;;;;27.91;37.29;96657.88;4995618;28;20025;-28
2021/09/26 06:27:06;;;;;;;7.65;2.50;;;;;;;27.92;37.33;96649.06;5006722;28;20026;-31
2021/09/26 06:29:32;;;;;;;2.97;2.58;;;;;;;27.90;37.23;96649.16;5005648;28;20033;-28
2021/09/26 06:31:57;;;;;;;3.08;2.42;;;;;;;27.92;37.18;96662.25;4996357;28;20021;-28
2021/09/26 06:34:23;;;;;;;6.38;2.42;;;;;;;27.92;37.26;96662.25;4998453;28;20272;-29
2021/09/26 06:36:48;;;;;;;5.85;2.95;;;;;;;27.91;37.21;96666.66;5005662;28;20025;-30
2021/09/26 06:39:13;;;;;;;4.68;2.50;;;;;;;27.92;37.27;96681.50;4997984;28;20033;-29
2021/09/26 06:41:39;;;;;;;8.00;2.70;;;;;;;27.94;37.26;96688.44;4997143;28;20025;-28
2021/09/26 06:44:05;;;;;;;11.77;2.50;;;;;;;27.93;37.54;96687.63;5007204;28;20855;-29
2021/09/26 06:46:30;;;;;;;6.88;3.15;;;;;;;27.92;37.58;96697.31;4996658;28;20029;-29
2021/09/26 06:48:55;;;;;;;6.50;3.78;;;;;;;27.94;37.78;96696.34;5006289;28;20025;-30
2021/09/26 06:51:21;;;;;;;8.77;3.83;;;;;;;27.94;37.91;96683.19;5002754;28;20030;-29
2021/09/26 06:53:46;;;;;;;10.35;4.20;;;;;;;27.92;37.98;96678.88;5000156;28;20029;-29
2021/09/26 06:56:12;;;;;;;6.13;4.10;;;;;;;27.92;38.07;96684.13;5002729;28;20038;-28
2021/09/26 06:58:37;;;;;;;9.98;4.30;;;;;;;27.94;37.98;96680.53;5004636;28;20014;-29
2021/09/26 07:01:03;;;;;;;7.55;3.53;;;;;;;27.92;37.67;96681.50;4999624;28;20502;-28
2021/09/26 07:03:28;;;;;;;6.53;3.83;;;;;;;27.93;37.99;96679.72;5007020;28;20015;-30
2021/09/26 07:05:53;;;;;;;9.63;4.10;;;;;;;27.94;38.00;96684.03;5003821;28;20037;-28
2021/09/26 07:08:19;;;;;;;16.17;4.50;;;;;;;27.95;38.14;96692.78;5022691;28;20565;-30
2021/09/26 07:10:44;;;;;;;12.60;3.97;;;;;;;27.94;38.29;96689.31;5025264;28;20033;-29
2021/09/26 07:13:10;;;;;;;7.55;4.03;;;;;;;27.95;38.35;96695.44;5026868;28;20086;-30
2021/09/26 07:15:35;;;;;;;16.13;4.47;;;;;;;27.95;38.48;96700.69;5031928;28;20479;-30
2021/09/26 07:18:01;;;;;;;10.45;4.20;;;;;;;27.93;38.50;96700.78;5028881;28;20029;-30
2021/09/26 07:20:29;;;;;;;20.42;5.18;;;;;;;27.94;38.78;96709.53;5029502;28;20041;-29
2021/09/26 07:22:58;;;;;;;12.82;4.20;;;;;;;27.92;38.66;96707.84;5029136;28;20046;-29
2021/09/26 07:25:23;;;;;;;13.88;4.65;;;;;;;27.91;38.88;96710.56;5012501;28;20029;-28
2021/09/26 07:27:49;;;;;;;8.75;4.40;;;;;;;27.89;39.09;96715.91;5030086;28;20081;-32
2021/09/26 07:30:14;;;;;;;14.10;4.90;;;;;;;27.87;39.11;96730.97;5026403;28;20614;-29
2021/09/26 07:32:40;;;;;;;16.05;5.20;;;;;;;27.86;39.04;96731.94;5026115;28;20030;-30
2021/09/26 07:35:05;;;;;;;13.57;4.95;;;;;;;27.84;39.18;96736.44;5027796;28;20021;-29
2021/09/26 07:37:31;;;;;;;12.88;4.63;;;;;;;27.84;39.25;96740.88;5027686;28;20037;-30
2021/09/26 07:39:56;;;;;;;11.88;4.93;;;;;;;27.82;39.18;96743.59;5026296;28;20534;-29
2021/09/26 07:42:21;;;;;;;6.75;4.43;;;;;;;27.77;39.19;96740.41;5029806;28;20037;-29
2021/09/26 07:44:47;;;;;;;12.90;4.72;;;;;;;27.79;39.29;96749.03;5026733;28;20039;-27
2021/09/26 07:47:12;;;;;;;11.52;4.72;;;;;;;27.78;39.35;96747.38;5027535;28;20048;-31
2021/09/26 07:49:38;;;;;;;10.35;4.35;;;;;;;27.78;39.34;96752.63;5028317;28;20033;-30
2021/09/26 07:52:03;;;;;;;11.07;5.22;;;;;;;27.77;39.57;96761.47;5035137;28;20021;-29
2021/09/26 07:54:31;;;;;;;11.20;5.00;;;;;;;27.75;39.37;96774.72;5033527;28;20037;-27
2021/09/26 07:56:56;;;;;;;25.05;5.00;;;;;;;27.75;39.72;96779.13;5036420;28;20026;-27
2021/09/26 07:59:22;;;;;;;8.68;4.60;;;;;;;27.75;39.59;96787.03;5037400;28;20029;-29
2021/09/26 08:01:48;;;;;;;8.93;4.47;;;;;;;27.76;39.68;96783.47;5029722;28;20028;-31
2021/09/26 08:04:13;;;;;;;10.68;4.78;;;;;;;27.75;39.51;96780.00;5026327;28;20040;-29
2021/09/26 08:06:38;;;;;;;12.57;4.50;;;;;;;27.75;39.70;96789.66;5032105;28;20022;-30
2021/09/26 08:09:04;;;;;;;8.95;5.05;;;;;;;27.76;39.59;96791.34;5031565;28;20585;-30
2021/09/26 08:11:30;;;;;;;10.55;5.10;;;;;;;27.75;39.55;96794.94;5026620;28;20041;-30
2021/09/26 08:13:55;;;;;;;8.63;4.75;;;;;;;27.74;39.59;96793.25;5029391;28;20380;-28
2021/09/26 08:16:21;;;;;;;11.57;5.00;;;;;;;27.73;39.52;96791.56;5027534;28;20043;-30
2021/09/26 08:18:46;;;;;;;8.02;4.68;;;;;;;27.72;39.71;96800.41;5028251;28;21002;-29
2021/09/26 08:21:11;;;;;;;9.25;4.72;;;;;;;27.67;39.77;96786.66;5027974;28;20040;-30
2021/09/26 08:23:37;;;;;;;7.03;4.35;;;;;;;27.72;39.65;96810.94;5028828;28;20605;-28
2021/09/26 08:26:03;;;;;;;8.18;4.53;;;;;;;27.72;39.85;96805.69;5027601;28;20388;-29
2021/09/26 08:28:29;;;;;;;9.45;5.15;;;;;;;27.71;39.80;96798.69;5022435;28;20036;-29
2021/09/26 08:30:54;;;;;;;7.40;4.63;;;;;;;27.72;39.75;96805.69;5028372;28;20082;-29
2021/09/26 08:33:19;;;;;;;7.10;4.28;;;;;;;27.71;39.84;96803.97;5025231;28;20055;-28
2021/09/26 08:35:45;;;;;;;8.68;4.47;;;;;;;27.72;39.90;96806.50;5028231;28;20025;-30
2021/09/26 08:38:10;;;;;;;10.52;5.05;;;;;;;27.71;40.01;96809.22;5031652;28;20044;-30
2021/09/26 08:40:36;;;;;;;12.02;5.20;;;;;;;27.68;40.19;96826.06;5027501;28;20072;-30
2021/09/26 08:43:01;;;;;;;11.80;5.28;;;;;;;27.63;40.29;96828.97;5026267;28;20456;-30
2021/09/26 08:45:28;;;;;;;19.23;6.22;;;;;;;27.59;40.32;96824.81;5030196;28;20052;-28
2021/09/26 08:47:53;;;;;;;10.13;5.63;;;;;;;27.55;40.31;96825.94;5030490;28;20154;-31
2021/09/26 08:50:20;;;;;;;19.63;5.57;;;;;;;27.52;40.58;96820.84;5030842;28;20567;-29
2021/09/26 08:52:46;;;;;;;12.68;5.18;;;;;;;27.48;40.88;96825.44;5027732;28;20071;-31
2021/09/26 08:55:12;;;;;;;14.73;5.07;;;;;;;27.46;40.95;96823.84;5026775;28;20396;-31
2021/09/26 08:57:37;;;;;;;10.77;4.70;;;;;;;27.43;40.76;96826.66;5027163;28;20457;-29
2021/09/26 09:00:07;;;;;;;9.00;4.88;;;;;;;27.42;40.80;96824.97;5034581;28;20036;-29
2021/09/26 09:02:32;;;;;;;17.15;5.00;;;;;;;27.42;40.75;96824.97;5032339;28;20074;-29
2021/09/26 09:04:58;;;;;;;13.48;5.30;;;;;;;27.42;40.81;96825.81;5025973;28;20511;-29
2021/09/26 09:07:23;;;;;;;11.43;4.50;;;;;;;27.44;40.66;96825.72;5030526;28;20908;-28
2021/09/26 09:09:56;;;;;;;13.02;4.40;;;;;;;27.47;40.61;96833.44;5030567;28;20033;-30
2021/09/26 09:12:26;;;;;;;12.35;5.00;;;;;;;27.47;40.62;96833.44;5025220;28;20098;-31
2021/09/26 09:14:59;;;;;;;14.38;4.80;;;;;;;27.50;40.59;96828.00;5025740;28;20033;-30
2021/09/26 09:17:26;;;;;;;14.38;5.07;;;;;;;27.52;40.61;96826.09;5022578;28;20103;-30
2021/09/26 09:20:12;;;;;;;14.75;4.75;;;;;;;27.54;40.54;96829.50;5023626;28;20033;-30
2021/09/26 09:22:37;;;;;;;8.95;4.70;;;;;;;27.56;40.40;96825.00;5025203;28;20067;-28
2021/09/26 09:25:03;;;;;;;66.00;11.70;;;;;;;27.57;40.52;96834.56;5030740;28;20033;-30
2021/09/26 09:27:28;;;;;;;15.27;6.40;;;;;;;27.57;40.56;96834.56;5028555;28;20037;-28
2021/09/26 09:29:53;;;;;;;28.83;6.50;;;;;;;27.57;40.67;96826.66;5026852;28;20036;-29
2021/09/26 09:32:22;;;;;;;15.75;6.38;;;;;;;27.57;40.53;96818.78;5037712;28;20033;-29
2021/09/26 09:34:48;;;;;;;24.92;6.07;;;;;;;27.58;40.58;96817.84;5032442;28;20026;-30
2021/09/26 09:37:17;;;;;;;33.67;6.15;;;;;;;27.61;40.48;96824.75;5032201;28;20071;-28
2021/09/26 09:40:03;;;;;;;21.17;5.55;;;;;;;27.62;40.48;96832.53;5032840;28;20032;-29
2021/09/26 09:42:30;;;;;;;13.82;5.55;;;;;;;27.64;40.49;96820.13;5036643;28;20028;-28
2021/09/26 09:44:55;;;;;;;18.92;5.30;;;;;;;27.67;40.56;96823.50;5016499;28;20502;-29
2021/09/26 09:47:21;;;;;;;15.07;5.43;;;;;;;27.68;40.38;96830.50;5031684;28;20057;-29
2021/09/26 09:49:54;;;;;;;19.77;5.50;;;;;;;27.70;40.45;96812.81;5034972;28;20067;-29
2021/09/26 09:52:39;;;;;;;12.68;5.22;;;;;;;27.72;40.27;96821.47;5034759;28;20025;-29
2021/09/26 09:55:05;;;;;;;13.90;4.70;;;;;;;27.74;40.15;96824.84;5033703;28;20060;-29
2021/09/26 09:57:30;;;;;;;19.33;5.57;;;;;;;27.74;40.18;96816.94;5034283;28;20443;-31
2021/09/26 09:59:55;;;;;;;12.25;4.45;;;;;;;27.77;40.15;96817.59;5035174;28;20033;-32
2021/09/26 10:02:21;;;;;;;10.82;4.88;;;;;;;27.78;39.99;96805.28;5017607;28;20021;-29
2021/09/26 10:04:47;;;;;;;12.13;4.55;;;;;;;27.79;40.12;96806.97;5014139;28;20033;-28
2021/09/26 10:07:23;;;;;;;11.82;4.72;;;;;;;27.81;40.21;96793.72;5031862;28;20490;-31
2021/09/26 10:09:49;;;;;;;11.82;4.25;;;;;;;27.81;40.13;96794.56;5033462;28;20075;-29
2021/09/26 10:12:19;;;;;;;11.20;4.47;;;;;;;27.83;40.04;96791.81;5032649;28;20142;-29
2021/09/26 10:14:44;;;;;;;10.93;4.88;;;;;;;27.83;40.01;96792.69;5032792;28;20116;-30
2021/09/26 10:17:10;;;;;;;12.05;4.43;;;;;;;27.84;39.88;96802.28;5034973;28;20033;-31
2021/09/26 10:19:36;;;;;;;13.85;4.22;;;;;;;27.86;39.92;96794.28;5031087;28;21544;-29
2021/09/26 10:22:02;;;;;;;11.77;4.38;;;;;;;27.87;39.80;96798.59;5033810;28;20017;-33
2021/09/26 10:24:30;;;;;;;13.68;3.60;;;;;;;27.87;39.84;96799.44;5032593;28;20127;-29
2021/09/26 10:27:01;;;;;;;10.20;3.78;;;;;;;27.87;39.86;96791.56;5035836;28;20040;-31
2021/09/26 10:29:27;;;;;;;9.32;4.57;;;;;;;27.89;39.76;96791.47;5029130;28;20032;-30
2021/09/26 10:31:53;;;;;;;8.20;4.30;;;;;;;27.90;39.83;96799.28;5032984;28;20512;-30
2021/09/26 10:34:20;;;;;;;7.78;3.92;;;;;;;27.90;39.79;96794.00;5035124;28;20028;-27
2021/09/26 10:36:46;;;;;;;10.40;3.80;;;;;;;27.91;39.70;96803.59;5029294;28;20021;-30
2021/09/26 10:39:12;;;;;;;7.38;3.75;;;;;;;27.91;39.78;96806.22;5029515;28;20037;-30
2021/09/26 10:42:03;;;;;;;16.88;3.63;;;;;;;27.92;39.53;96810.53;5031774;28;20031;-31
2021/09/26 10:44:28;;;;;;;7.93;3.30;;;;;;;27.94;39.69;96805.19;5034624;28;20450;-30
2021/09/26 10:47:19;;;;;;;7.18;3.30;;;;;;;27.95;39.70;96806.88;5035823;28;20044;-29
2021/09/26 10:50:12;;;;;;;5.50;3.22;;;;;;;27.95;39.72;96798.97;5033606;28;20100;-29
2021/09/26 10:52:50;;;;;;;6.97;3.42;;;;;;;27.97;39.77;96809.41;5037044;28;20111;-33
2021/09/26 10:55:18;;;;;;;7.93;3.10;;;;;;;27.97;39.76;96805.00;5035078;28;20117;-30
2021/09/26 10:58:06;;;;;;;7.70;3.20;;;;;;;27.97;39.67;96798.88;5032417;28;20033;-32
2021/09/26 11:00:46;;;;;;;7.07;3.50;;;;;;;27.97;39.75;96797.09;5025629;28;20033;-28
2021/09/26 11:03:14;;;;;;;11.05;3.25;;;;;;;27.98;39.62;96795.31;5022543;28;20026;-29
2021/09/26 11:05:43;;;;;;;4.68;3.08;;;;;;;27.97;39.66;96783.94;5033802;28;20022;-27
2021/09/26 11:08:29;;;;;;;4.20;2.67;;;;;;;27.97;39.82;96778.66;5034101;28;20013;-29
2021/09/26 11:10:58;;;;;;;4.72;3.15;;;;;;;27.99;39.69;96770.69;5018846;28;20499;-28
2021/09/26 11:13:34;;;;;;;4.25;3.17;;;;;;;27.99;39.75;96763.59;5033593;28;20024;-29
2021/09/26 11:16:13;;;;;;;4.60;3.08;;;;;;;28.00;39.77;96778.47;5036997;28;20040;-29
2021/09/26 11:18:53;;;;;;;4.13;3.05;;;;;;;28.00;39.67;96770.56;5037716;28;20025;-35
2021/09/26 11:24:10;;;;;;;4.68;3.00;;;;;;;28.02;39.63;96765.19;5034959;28;20025;-29
2021/09/26 11:26:57;;;;;;;5.50;3.20;;;;;;;28.02;39.71;96754.66;5033452;28;20025;-29
2021/09/26 11:29:48;;;;;;;7.03;3.65;;;;;;;28.02;39.56;96749.38;5033013;28;20465;-30
2021/09/26 11:32:22;;;;;;;12.23;3.23;;;;;;;28.03;39.57;96751.06;5006912;28;20123;-28
2021/09/26 11:34:52;;;;;;;5.30;2.97;;;;;;;28.04;39.58;96750.16;5032166;28;20079;-31
2021/09/26 11:37:19;;;;;;;5.53;3.20;;;;;;;28.04;39.55;96748.34;5030858;28;20391;-29